Pagrindinis puslapis
METAR-TAF:

METAR-TAF

Oro uostai :

Laoag, Filipinai

platuma: 18-11N, ilguma: 120-32E, Aukštis: 4 m

Dabartinis oras

Ataskaita buvo paskelbta 32 minutes, ne 21:00 UTC
Ramus vėjas
Temperatūra 22°C
Drėgmė 94%
Slėgis 1010 hPa
Matomumas 10 km arba daugiau
Mažai debesys ne aukštis 1800 ft
Su prošvaistėmis ne aukštis 29000 ft

METAR: RPLI 262100Z 00000KT 9999 FEW018 BKN290 22/21 Q1010 NOSIG RMK A2983

Laikas: 05:32 (21:32 UTC)

Prognozė

Ataskaita buvo paskelbta 4 valandos ir 32 minutes, ne 17:00 UTC
Prognozė galioja nuo 26 metu 18 UTC su 27 metu 18 UTC
Vėjas 12 kt iš Šiaurės
Matomumas 10 km arba daugiau
Mažai debesys ne aukštis 1800 ft
Išsisklaidę debesys ne aukštis 29000 ft
Laikinai
nuo 26 metu 18 UTC su 26 metu 24 UTC
Vėjas 5 kt iš Rytų/Šiaurės Rytų
Mažai debesys ne aukštis 1800 ft
Su prošvaistėmis ne aukštis 9000 ft

TAF: RPLI 261700Z 2618/2718 36012KT 9999 FEW018 SCT290 TEMPO 2618/2624 06005KT FEW018 BKN090

Orai ataskaitas ir orų prognozės (METAR, TAF).

turimą stotys yra geltonos ir raudonos taškus žemėlapyje.

Perkelti pele per norėdami pamatyti stoties vardą.

Tada spustelėkite, norėdami matyti oro stebėjimo ir prognozės.

Norėdami pakeisti žemėlapį: spustelėkite ant žalios mygtukų su juodo kryžiaus žemyn,; žalią mygtuką su brūkšneliu, jei norite nutolinti; arba žalių rodyklių gretimoms žemėlapius.


METAR-TAF: